sensor_id;sensor_type;location;lat;lon;timestamp;pressure;altitude;pressure_sealevel;temperature
31528;BMP280;10206;48.012;10.030;2023-11-19T00:01:24;94808.63;;;9.10
31528;BMP280;10206;48.012;10.030;2023-11-19T00:03:50;94812.44;;;9.07
31528;BMP280;10206;48.012;10.030;2023-11-19T00:06:16;94812.00;;;9.18
31528;BMP280;10206;48.012;10.030;2023-11-19T00:08:42;94808.75;;;9.19
31528;BMP280;10206;48.012;10.030;2023-11-19T00:11:11;94798.91;;;9.24
31528;BMP280;10206;48.012;10.030;2023-11-19T00:13:41;94796.63;;;9.13
31528;BMP280;10206;48.012;10.030;2023-11-19T00:16:07;94783.59;;;9.36
31528;BMP280;10206;48.012;10.030;2023-11-19T00:18:35;94780.97;;;9.21
31528;BMP280;10206;48.012;10.030;2023-11-19T00:21:05;94786.53;;;8.98
31528;BMP280;10206;48.012;10.030;2023-11-19T00:23:33;94776.53;;;9.33
31528;BMP280;10206;48.012;10.030;2023-11-19T00:25:59;94777.59;;;9.37
31528;BMP280;10206;48.012;10.030;2023-11-19T00:28:25;94761.53;;;9.24
31528;BMP280;10206;48.012;10.030;2023-11-19T00:30:52;94764.09;;;9.22
31528;BMP280;10206;48.012;10.030;2023-11-19T00:33:18;94765.13;;;9.27
31528;BMP280;10206;48.012;10.030;2023-11-19T00:35:45;94772.16;;;9.13
31528;BMP280;10206;48.012;10.030;2023-11-19T00:38:11;94780.25;;;9.45
31528;BMP280;10206;48.012;10.030;2023-11-19T00:40:37;94764.28;;;9.66
31528;BMP280;10206;48.012;10.030;2023-11-19T00:43:03;94755.09;;;9.37
31528;BMP280;10206;48.012;10.030;2023-11-19T00:45:29;94757.78;;;9.62
31528;BMP280;10206;48.012;10.030;2023-11-19T00:47:55;94765.22;;;9.61
31528;BMP280;10206;48.012;10.030;2023-11-19T00:50:21;94769.78;;;9.58
31528;BMP280;10206;48.012;10.030;2023-11-19T00:52:48;94755.31;;;9.73
31528;BMP280;10206;48.012;10.030;2023-11-19T00:55:14;94765.22;;;9.61
31528;BMP280;10206;48.012;10.030;2023-11-19T00:57:40;94771.00;;;9.65
31528;BMP280;10206;48.012;10.030;2023-11-19T01:00:07;94776.22;;;9.71
31528;BMP280;10206;48.012;10.030;2023-11-19T01:02:41;94770.00;;;9.95
31528;BMP280;10206;48.012;10.030;2023-11-19T01:05:08;94778.13;;;10.02
31528;BMP280;10206;48.012;10.030;2023-11-19T01:07:35;94778.19;;;9.78
31528;BMP280;10206;48.012;10.030;2023-11-19T01:10:01;94783.22;;;9.98
31528;BMP280;10206;48.012;10.030;2023-11-19T01:12:28;94790.03;;;9.90
31528;BMP280;10206;48.012;10.030;2023-11-19T01:14:55;94773.59;;;9.97
31528;BMP280;10206;48.012;10.030;2023-11-19T01:17:21;94783.06;;;10.13
31528;BMP280;10206;48.012;10.030;2023-11-19T01:19:47;94760.31;;;10.18
31528;BMP280;10206;48.012;10.030;2023-11-19T01:22:13;94755.09;;;9.96
31528;BMP280;10206;48.012;10.030;2023-11-19T01:24:39;94756.44;;;10.04
31528;BMP280;10206;48.012;10.030;2023-11-19T01:27:05;94751.72;;;9.88
31528;BMP280;10206;48.012;10.030;2023-11-19T01:29:31;94756.44;;;10.04
31528;BMP280;10206;48.012;10.030;2023-11-19T01:31:57;94746.88;;;10.03
31528;BMP280;10206;48.012;10.030;2023-11-19T01:34:23;94744.59;;;10.26
31528;BMP280;10206;48.012;10.030;2023-11-19T01:36:49;94747.16;;;10.07
31528;BMP280;10206;48.012;10.030;2023-11-19T01:39:16;94738.91;;;10.15
31528;BMP280;10206;48.012;10.030;2023-11-19T01:41:42;94726.47;;;10.21
31528;BMP280;10206;48.012;10.030;2023-11-19T01:44:08;94722.00;;;10.16
31528;BMP280;10206;48.012;10.030;2023-11-19T01:46:35;94705.94;;;10.20
31528;BMP280;10206;48.012;10.030;2023-11-19T01:49:02;94696.50;;;10.04
31528;BMP280;10206;48.012;10.030;2023-11-19T01:51:31;94703.00;;;10.09
31528;BMP280;10206;48.012;10.030;2023-11-19T01:53:58;94705.94;;;10.20
31528;BMP280;10206;48.012;10.030;2023-11-19T01:56:24;94701.16;;;10.11
31528;BMP280;10206;48.012;10.030;2023-11-19T01:58:52;94685.47;;;10.02
31528;BMP280;10206;48.012;10.030;2023-11-19T02:01:20;94690.06;;;10.26
31528;BMP280;10206;48.012;10.030;2023-11-19T02:03:46;94694.91;;;10.01
31528;BMP280;10206;48.012;10.030;2023-11-19T02:06:13;94699.28;;;10.14
31528;BMP280;10206;48.012;10.030;2023-11-19T02:08:39;94712.72;;;10.19
31528;BMP280;10206;48.012;10.030;2023-11-19T02:11:06;94717.44;;;10.02
31528;BMP280;10206;48.012;10.030;2023-11-19T02:13:35;94700.03;;;10.14
31528;BMP280;10206;48.012;10.030;2023-11-19T02:16:03;94683.28;;;10.18
31528;BMP280;10206;48.012;10.030;2023-11-19T02:18:30;94684.41;;;10.15
31528;BMP280;10206;48.012;10.030;2023-11-19T02:20:59;94676.94;;;10.33
31528;BMP280;10206;48.012;10.030;2023-11-19T02:23:28;94671.19;;;10.11
31528;BMP280;10206;48.012;10.030;2023-11-19T02:26:18;94677.22;;;10.37
31528;BMP280;10206;48.012;10.030;2023-11-19T02:28:44;94670.69;;;10.22
31528;BMP280;10206;48.012;10.030;2023-11-19T02:31:11;94658.47;;;10.23
31528;BMP280;10206;48.012;10.030;2023-11-19T02:33:40;94651.56;;;9.96
31528;BMP280;10206;48.012;10.030;2023-11-19T02:36:07;94656.41;;;10.14
31528;BMP280;10206;48.012;10.030;2023-11-19T02:38:37;94647.06;;;10.08
31528;BMP280;10206;48.012;10.030;2023-11-19T02:41:07;94642.91;;;10.34
31528;BMP280;10206;48.012;10.030;2023-11-19T02:43:34;94653.22;;;10.25
31528;BMP280;10206;48.012;10.030;2023-11-19T02:46:04;94657.50;;;10.28
31528;BMP280;10206;48.012;10.030;2023-11-19T02:48:34;94646.38;;;10.70
31528;BMP280;10206;48.012;10.030;2023-11-19T02:51:02;94655.03;;;10.50
31528;BMP280;10206;48.012;10.030;2023-11-19T02:53:29;94658.78;;;10.45
31528;BMP280;10206;48.012;10.030;2023-11-19T02:55:56;94653.53;;;10.66
31528;BMP280;10206;48.012;10.030;2023-11-19T02:58:28;94650.22;;;10.58
31528;BMP280;10206;48.012;10.030;2023-11-19T03:00:55;94649.88;;;10.44
31528;BMP280;10206;48.012;10.030;2023-11-19T03:03:25;94659.53;;;10.55
31528;BMP280;10206;48.012;10.030;2023-11-19T03:05:57;94654.13;;;10.64
31528;BMP280;10206;48.012;10.030;2023-11-19T03:08:23;94651.03;;;10.51
31528;BMP280;10206;48.012;10.030;2023-11-19T03:10:49;94647.31;;;10.56
31528;BMP280;10206;48.012;10.030;2023-11-19T03:13:15;94654.53;;;10.61
31528;BMP280;10206;48.012;10.030;2023-11-19T03:15:43;94642.56;;;10.29
31528;BMP280;10206;48.012;10.030;2023-11-19T03:18:09;94637.50;;;10.43
31528;BMP280;10206;48.012;10.030;2023-11-19T03:20:35;94620.91;;;10.49
31528;BMP280;10206;48.012;10.030;2023-11-19T03:23:01;94630.94;;;10.56
31528;BMP280;10206;48.012;10.030;2023-11-19T03:25:27;94627.81;;;10.59
31528;BMP280;10206;48.012;10.030;2023-11-19T03:27:59;94625.03;;;10.50
31528;BMP280;10206;48.012;10.030;2023-11-19T03:30:27;94626.50;;;10.51
31528;BMP280;10206;48.012;10.030;2023-11-19T03:32:54;94640.22;;;10.43
31528;BMP280;10206;48.012;10.030;2023-11-19T03:35:21;94640.91;;;10.61
31528;BMP280;10206;48.012;10.030;2023-11-19T03:37:47;94637.38;;;10.77
31528;BMP280;10206;48.012;10.030;2023-11-19T03:40:13;94642.44;;;10.54
31528;BMP280;10206;48.012;10.030;2023-11-19T03:42:40;94652.88;;;10.48
31528;BMP280;10206;48.012;10.030;2023-11-19T03:45:09;94647.66;;;10.69
31528;BMP280;10206;48.012;10.030;2023-11-19T03:47:36;94656.13;;;10.64
31528;BMP280;10206;48.012;10.030;2023-11-19T03:50:02;94650.53;;;10.35
31528;BMP280;10206;48.012;10.030;2023-11-19T03:52:29;94651.75;;;10.51
31528;BMP280;10206;48.012;10.030;2023-11-19T03:54:55;94644.75;;;10.58
31528;BMP280;10206;48.012;10.030;2023-11-19T03:57:23;94647.91;;;10.90
31528;BMP280;10206;48.012;10.030;2023-11-19T03:59:49;94648.97;;;10.68
31528;BMP280;10206;48.012;10.030;2023-11-19T04:02:16;94641.41;;;10.76
31528;BMP280;10206;48.012;10.030;2023-11-19T04:04:42;94646.56;;;10.82
31528;BMP280;10206;48.012;10.030;2023-11-19T04:07:08;94652.03;;;10.82
31528;BMP280;10206;48.012;10.030;2023-11-19T04:09:35;94655.16;;;10.78
31528;BMP280;10206;48.012;10.030;2023-11-19T04:12:03;94659.44;;;11.08
31528;BMP280;10206;48.012;10.030;2023-11-19T04:14:30;94664.31;;;11.00
31528;BMP280;10206;48.012;10.030;2023-11-19T04:16:56;94664.44;;;10.92
31528;BMP280;10206;48.012;10.030;2023-11-19T04:19:22;94659.56;;;11.10
31528;BMP280;10206;48.012;10.030;2023-11-19T04:21:48;94655.75;;;10.77
31528;BMP280;10206;48.012;10.030;2023-11-19T04:24:14;94656.56;;;11.06
31528;BMP280;10206;48.012;10.030;2023-11-19T04:26:45;94657.47;;;10.82
31528;BMP280;10206;48.012;10.030;2023-11-19T04:29:13;94663.44;;;11.07
31528;BMP280;10206;48.012;10.030;2023-11-19T04:31:40;94665.50;;;11.16
31528;BMP280;10206;48.012;10.030;2023-11-19T04:34:07;94661.69;;;11.02
31528;BMP280;10206;48.012;10.030;2023-11-19T04:36:33;94665.13;;;10.93
31528;BMP280;10206;48.012;10.030;2023-11-19T04:39:03;94673.78;;;10.99
31528;BMP280;10206;48.012;10.030;2023-11-19T04:41:35;94664.16;;;11.08
31528;BMP280;10206;48.012;10.030;2023-11-19T04:44:01;94667.91;;;11.12
31528;BMP280;10206;48.012;10.030;2023-11-19T04:46:27;94673.38;;;11.12
31528;BMP280;10206;48.012;10.030;2023-11-19T04:48:54;94678.97;;;11.14
31528;BMP280;10206;48.012;10.030;2023-11-19T04:51:20;94671.53;;;11.15
31528;BMP280;10206;48.012;10.030;2023-11-19T04:53:46;94684.00;;;11.08
31528;BMP280;10206;48.012;10.030;2023-11-19T04:56:12;94690.09;;;11.35
31528;BMP280;10206;48.012;10.030;2023-11-19T04:58:39;94688.22;;;11.28
31528;BMP280;10206;48.012;10.030;2023-11-19T05:01:05;94680.75;;;11.29
31528;BMP280;10206;48.012;10.030;2023-11-19T05:03:32;94672.25;;;11.15
31528;BMP280;10206;48.012;10.030;2023-11-19T05:06:01;94678.44;;;11.25
31528;BMP280;10206;48.012;10.030;2023-11-19T05:08:27;94669.81;;;11.19
31528;BMP280;10206;48.012;10.030;2023-11-19T05:10:53;94670.50;;;11.20
31528;BMP280;10206;48.012;10.030;2023-11-19T05:13:19;94681.94;;;11.45
31528;BMP280;10206;48.012;10.030;2023-11-19T05:15:45;94688.25;;;11.47
31528;BMP280;10206;48.012;10.030;2023-11-19T05:18:11;94681.63;;;11.50
31528;BMP280;10206;48.012;10.030;2023-11-19T05:20:37;94683.34;;;11.36
31528;BMP280;10206;48.012;10.030;2023-11-19T05:23:03;94688.56;;;11.51
31528;BMP280;10206;48.012;10.030;2023-11-19T05:25:29;94675.72;;;11.35
31528;BMP280;10206;48.012;10.030;2023-11-19T05:27:55;94673.56;;;11.43
31528;BMP280;10206;48.012;10.030;2023-11-19T05:30:21;94666.94;;;11.36
31528;BMP280;10206;48.012;10.030;2023-11-19T05:32:48;94652.31;;;11.41
31528;BMP280;10206;48.012;10.030;2023-11-19T05:35:14;94647.72;;;11.44
31528;BMP280;10206;48.012;10.030;2023-11-19T05:37:40;94691.13;;;11.59
31528;BMP280;10206;48.012;10.030;2023-11-19T05:40:07;94704.50;;;11.55
31528;BMP280;10206;48.012;10.030;2023-11-19T05:42:40;94719.28;;;11.42
31528;BMP280;10206;48.012;10.030;2023-11-19T05:45:07;94706.66;;;11.56
31528;BMP280;10206;48.012;10.030;2023-11-19T05:47:34;94683.34;;;11.55
31528;BMP280;10206;48.012;10.030;2023-11-19T05:50:00;94691.72;;;11.57
31528;BMP280;10206;48.012;10.030;2023-11-19T05:52:26;94705.81;;;11.63
31528;BMP280;10206;48.012;10.030;2023-11-19T05:54:53;94694.59;;;11.59
31528;BMP280;10206;48.012;10.030;2023-11-19T05:57:20;94697.19;;;11.57
31528;BMP280;10206;48.012;10.030;2023-11-19T05:59:49;94704.78;;;11.59
31528;BMP280;10206;48.012;10.030;2023-11-19T06:02:15;94701.94;;;11.66
31528;BMP280;10206;48.012;10.030;2023-11-19T06:04:42;94692.16;;;11.73
31528;BMP280;10206;48.012;10.030;2023-11-19T06:07:10;94703.38;;;11.87
31528;BMP280;10206;48.012;10.030;2023-11-19T06:09:36;94705.66;;;11.61
31528;BMP280;10206;48.012;10.030;2023-11-19T06:12:02;94713.16;;;11.99
31528;BMP280;10206;48.012;10.030;2023-11-19T06:14:29;94711.84;;;11.91
31528;BMP280;10206;48.012;10.030;2023-11-19T06:16:55;94695.47;;;11.81
31528;BMP280;10206;48.012;10.030;2023-11-19T06:19:21;94708.69;;;12.04
31528;BMP280;10206;48.012;10.030;2023-11-19T06:21:47;94693.16;;;11.78
31528;BMP280;10206;48.012;10.030;2023-11-19T06:24:14;94705.53;;;11.79
31528;BMP280;10206;48.012;10.030;2023-11-19T06:26:40;94710.84;;;12.05
31528;BMP280;10206;48.012;10.030;2023-11-19T06:29:06;94704.22;;;11.99
31528;BMP280;10206;48.012;10.030;2023-11-19T06:31:33;94704.53;;;11.93
31528;BMP280;10206;48.012;10.030;2023-11-19T06:33:59;94715.06;;;11.97
31528;BMP280;10206;48.012;10.030;2023-11-19T06:36:25;94724.22;;;11.92
31528;BMP280;10206;48.012;10.030;2023-11-19T06:38:52;94702.97;;;11.81
31528;BMP280;10206;48.012;10.030;2023-11-19T06:41:18;94704.38;;;11.82
31528;BMP280;10206;48.012;10.030;2023-11-19T06:43:44;94701.50;;;11.80
31528;BMP280;10206;48.012;10.030;2023-11-19T06:46:17;94701.50;;;11.80
31528;BMP280;10206;48.012;10.030;2023-11-19T06:48:44;94703.09;;;11.83
31528;BMP280;10206;48.012;10.030;2023-11-19T06:51:10;94710.13;;;11.86
31528;BMP280;10206;48.012;10.030;2023-11-19T06:53:37;94709.00;;;11.89
31528;BMP280;10206;48.012;10.030;2023-11-19T06:56:03;94710.72;;;11.94
31528;BMP280;10206;48.012;10.030;2023-11-19T06:58:35;94712.75;;;12.03
31528;BMP280;10206;48.012;10.030;2023-11-19T07:01:01;94716.91;;;12.04
31528;BMP280;10206;48.012;10.030;2023-11-19T07:03:27;94722.22;;;12.11
31528;BMP280;10206;48.012;10.030;2023-11-19T07:05:53;94722.19;;;12.21
31528;BMP280;10206;48.012;10.030;2023-11-19T07:08:21;94722.09;;;12.09
31528;BMP280;10206;48.012;10.030;2023-11-19T07:10:47;94720.03;;;12.38
31528;BMP280;10206;48.012;10.030;2023-11-19T07:13:14;94731.00;;;12.29
31528;BMP280;10206;48.012;10.030;2023-11-19T07:15:40;94734.00;;;12.14
31528;BMP280;10206;48.012;10.030;2023-11-19T07:18:07;94743.78;;;12.36
31528;BMP280;10206;48.012;10.030;2023-11-19T07:20:33;94731.09;;;12.40
31528;BMP280;10206;48.012;10.030;2023-11-19T07:22:59;94734.13;;;12.44
31528;BMP280;10206;48.012;10.030;2023-11-19T07:25:25;94738.72;;;12.32
31528;BMP280;10206;48.012;10.030;2023-11-19T07:27:52;94746.78;;;12.40
31528;BMP280;10206;48.012;10.030;2023-11-19T07:30:19;94744.91;;;12.52
31528;BMP280;10206;48.012;10.030;2023-11-19T07:32:45;94750.56;;;12.25
31528;BMP280;10206;48.012;10.030;2023-11-19T07:35:11;94756.16;;;12.37
31528;BMP280;10206;48.012;10.030;2023-11-19T07:37:37;94759.59;;;12.47
31528;BMP280;10206;48.012;10.030;2023-11-19T07:40:04;94754.97;;;12.59
31528;BMP280;10206;48.012;10.030;2023-11-19T07:42:30;94757.13;;;12.61
31528;BMP280;10206;48.012;10.030;2023-11-19T07:44:57;94761.53;;;12.75
31528;BMP280;10206;48.012;10.030;2023-11-19T07:47:23;94750.31;;;12.71
31528;BMP280;10206;48.012;10.030;2023-11-19T07:49:50;94759.03;;;12.58
31528;BMP280;10206;48.012;10.030;2023-11-19T07:52:16;94758.84;;;12.66
31528;BMP280;10206;48.012;10.030;2023-11-19T07:54:43;94751.78;;;12.63
31528;BMP280;10206;48.012;10.030;2023-11-19T07:57:09;94767.31;;;12.79
31528;BMP280;10206;48.012;10.030;2023-11-19T07:59:35;94767.72;;;12.85
31528;BMP280;10206;48.012;10.030;2023-11-19T08:02:02;94768.03;;;12.80
31528;BMP280;10206;48.012;10.030;2023-11-19T08:04:29;94774.28;;;13.01
31528;BMP280;10206;48.012;10.030;2023-11-19T08:06:55;94773.81;;;13.14
31528;BMP280;10206;48.012;10.030;2023-11-19T08:09:21;94781.75;;;13.10
31528;BMP280;10206;48.012;10.030;2023-11-19T08:11:48;94788.13;;;12.94
31528;BMP280;10206;48.012;10.030;2023-11-19T08:14:14;94773.28;;;13.06
31528;BMP280;10206;48.012;10.030;2023-11-19T08:16:40;94784.50;;;13.10
31528;BMP280;10206;48.012;10.030;2023-11-19T08:19:07;94794.97;;;13.23
31528;BMP280;10206;48.012;10.030;2023-11-19T08:21:34;94789.81;;;13.18
31528;BMP280;10206;48.012;10.030;2023-11-19T08:24:00;94780.50;;;13.33
31528;BMP280;10206;48.012;10.030;2023-11-19T08:26:26;94784.97;;;13.59
31528;BMP280;10206;48.012;10.030;2023-11-19T08:28:52;94788.88;;;13.35
31528;BMP280;10206;48.012;10.030;2023-11-19T08:31:18;94782.16;;;13.47
31528;BMP280;10206;48.012;10.030;2023-11-19T08:33:44;94787.72;;;13.59
31528;BMP280;10206;48.012;10.030;2023-11-19T08:36:16;94789.63;;;13.56
31528;BMP280;10206;48.012;10.030;2023-11-19T08:38:42;94785.38;;;13.44
31528;BMP280;10206;48.012;10.030;2023-11-19T08:41:08;94780.63;;;13.44
31528;BMP280;10206;48.012;10.030;2023-11-19T08:43:35;94779.94;;;13.55
31528;BMP280;10206;48.012;10.030;2023-11-19T08:46:01;94777.56;;;13.71
31528;BMP280;10206;48.012;10.030;2023-11-19T08:48:27;94768.28;;;13.97
31528;BMP280;10206;48.012;10.030;2023-11-19T08:50:53;94780.56;;;13.96
31528;BMP280;10206;48.012;10.030;2023-11-19T08:53:19;94776.59;;;13.87
31528;BMP280;10206;48.012;10.030;2023-11-19T08:55:45;94775.59;;;13.83
31528;BMP280;10206;48.012;10.030;2023-11-19T08:58:11;94765.06;;;14.00
31528;BMP280;10206;48.012;10.030;2023-11-19T09:00:37;94766.06;;;14.05
31528;BMP280;10206;48.012;10.030;2023-11-19T09:03:03;94770.88;;;14.16
31528;BMP280;10206;48.012;10.030;2023-11-19T09:05:29;94764.28;;;14.10
31528;BMP280;10206;48.012;10.030;2023-11-19T09:07:56;94766.66;;;13.82
31528;BMP280;10206;48.012;10.030;2023-11-19T09:10:22;94768.13;;;13.95
31528;BMP280;10206;48.012;10.030;2023-11-19T09:12:48;94771.66;;;14.07
31528;BMP280;10206;48.012;10.030;2023-11-19T09:15:14;94778.94;;;14.02
31528;BMP280;10206;48.012;10.030;2023-11-19T09:17:40;94778.31;;;14.25
31528;BMP280;10206;48.012;10.030;2023-11-19T09:20:07;94779.25;;;13.97
31528;BMP280;10206;48.012;10.030;2023-11-19T09:22:34;94781.03;;;14.25
31528;BMP280;10206;48.012;10.030;2023-11-19T09:25:00;94786.78;;;14.29
31528;BMP280;10206;48.012;10.030;2023-11-19T09:27:26;94782.03;;;14.30
31528;BMP280;10206;48.012;10.030;2023-11-19T09:29:52;94779.91;;;14.40
31528;BMP280;10206;48.012;10.030;2023-11-19T09:32:23;94784.44;;;14.35
31528;BMP280;10206;48.012;10.030;2023-11-19T09:34:49;94777.41;;;14.11
31528;BMP280;10206;48.012;10.030;2023-11-19T09:37:15;94774.28;;;14.38
31528;BMP280;10206;48.012;10.030;2023-11-19T09:39:42;94771.16;;;14.32
31528;BMP280;10206;48.012;10.030;2023-11-19T09:42:12;94773.22;;;14.10
31528;BMP280;10206;48.012;10.030;2023-11-19T09:44:39;94773.06;;;14.29
31528;BMP280;10206;48.012;10.030;2023-11-19T09:47:08;94773.22;;;14.43
31528;BMP280;10206;48.012;10.030;2023-11-19T09:49:36;94782.53;;;14.49
31528;BMP280;10206;48.012;10.030;2023-11-19T09:52:02;94784.38;;;14.56
31528;BMP280;10206;48.012;10.030;2023-11-19T09:54:29;94771.00;;;14.62
31528;BMP280;10206;48.012;10.030;2023-11-19T09:56:57;94775.09;;;14.84
31528;BMP280;10206;48.012;10.030;2023-11-19T09:59:30;94777.88;;;14.96
31528;BMP280;10206;48.012;10.030;2023-11-19T10:01:57;94773.81;;;14.97
31528;BMP280;10206;48.012;10.030;2023-11-19T10:04:23;94774.38;;;14.84
31528;BMP280;10206;48.012;10.030;2023-11-19T10:06:50;94780.03;;;14.86
31528;BMP280;10206;48.012;10.030;2023-11-19T10:09:17;94769.16;;;14.76
31528;BMP280;10206;48.012;10.030;2023-11-19T10:11:43;94774.41;;;14.96
31528;BMP280;10206;48.012;10.030;2023-11-19T10:14:10;94775.84;;;15.20
31528;BMP280;10206;48.012;10.030;2023-11-19T10:16:36;94770.44;;;14.75
31528;BMP280;10206;48.012;10.030;2023-11-19T10:19:03;94770.13;;;14.93
31528;BMP280;10206;48.012;10.030;2023-11-19T10:21:32;94771.41;;;15.03
31528;BMP280;10206;48.012;10.030;2023-11-19T10:23:58;94772.50;;;14.87
31528;BMP280;10206;48.012;10.030;2023-11-19T10:26:26;94783.50;;;15.10
31528;BMP280;10206;48.012;10.030;2023-11-19T10:28:53;94774.63;;;14.76
31528;BMP280;10206;48.012;10.030;2023-11-19T10:31:20;94761.41;;;14.96
31528;BMP280;10206;48.012;10.030;2023-11-19T10:33:55;94762.56;;;14.81
31528;BMP280;10206;48.012;10.030;2023-11-19T10:36:22;94756.97;;;14.91
31528;BMP280;10206;48.012;10.030;2023-11-19T10:38:56;94744.66;;;14.69
31528;BMP280;10206;48.012;10.030;2023-11-19T10:41:29;94750.97;;;14.83
31528;BMP280;10206;48.012;10.030;2023-11-19T10:43:56;94759.94;;;14.95
31528;BMP280;10206;48.012;10.030;2023-11-19T10:46:23;94755.53;;;15.02
31528;BMP280;10206;48.012;10.030;2023-11-19T10:49:01;94744.88;;;15.19
31528;BMP280;10206;48.012;10.030;2023-11-19T10:51:27;94748.00;;;14.79
31528;BMP280;10206;48.012;10.030;2023-11-19T10:53:56;94740.94;;;15.34
31528;BMP280;10206;48.012;10.030;2023-11-19T10:56:29;94728.41;;;15.19
31528;BMP280;10206;48.012;10.030;2023-11-19T10:58:57;94736.59;;;15.65
31528;BMP280;10206;48.012;10.030;2023-11-19T11:01:27;94732.03;;;15.58
31528;BMP280;10206;48.012;10.030;2023-11-19T11:03:59;94733.66;;;15.50
31528;BMP280;10206;48.012;10.030;2023-11-19T11:06:27;94735.84;;;15.77
31528;BMP280;10206;48.012;10.030;2023-11-19T11:08:55;94741.81;;;15.61
31528;BMP280;10206;48.012;10.030;2023-11-19T11:11:21;94729.63;;;16.01
31528;BMP280;10206;48.012;10.030;2023-11-19T11:13:50;94728.34;;;16.02
31528;BMP280;10206;48.012;10.030;2023-11-19T11:16:22;94723.56;;;16.16
31528;BMP280;10206;48.012;10.030;2023-11-19T11:18:50;94714.66;;;16.04
31528;BMP280;10206;48.012;10.030;2023-11-19T11:21:20;94710.47;;;15.78
31528;BMP280;10206;48.012;10.030;2023-11-19T11:35:24;94703.09;;;15.69
31528;BMP280;10206;48.012;10.030;2023-11-19T11:38:05;94710.09;;;15.47
31528;BMP280;10206;48.012;10.030;2023-11-19T11:40:32;94709.16;;;15.67
31528;BMP280;10206;48.012;10.030;2023-11-19T11:42:59;94703.53;;;15.77
31528;BMP280;10206;48.012;10.030;2023-11-19T11:45:45;94696.13;;;15.80
31528;BMP280;10206;48.012;10.030;2023-11-19T11:48:20;94706.34;;;15.91
31528;BMP280;10206;48.012;10.030;2023-11-19T11:50:56;94704.88;;;16.01
31528;BMP280;10206;48.012;10.030;2023-11-19T11:53:23;94707.03;;;16.41
31528;BMP280;10206;48.012;10.030;2023-11-19T12:00:48;94698.22;;;16.18
31528;BMP280;10206;48.012;10.030;2023-11-19T12:03:14;94691.59;;;16.23
31528;BMP280;10206;48.012;10.030;2023-11-19T12:05:45;94698.06;;;16.16
31528;BMP280;10206;48.012;10.030;2023-11-19T12:08:13;94680.22;;;16.03
31528;BMP280;10206;48.012;10.030;2023-11-19T12:13:13;94680.34;;;15.80
31528;BMP280;10206;48.012;10.030;2023-11-19T12:18:27;94674.84;;;15.80
31528;BMP280;10206;48.012;10.030;2023-11-19T12:20:54;94671.53;;;15.95
31528;BMP280;10206;48.012;10.030;2023-11-19T12:23:20;94661.81;;;15.94
31528;BMP280;10206;48.012;10.030;2023-11-19T12:25:46;94666.94;;;16.25
31528;BMP280;10206;48.012;10.030;2023-11-19T12:28:13;94660.63;;;16.36
31528;BMP280;10206;48.012;10.030;2023-11-19T12:30:40;94659.09;;;16.33
31528;BMP280;10206;48.012;10.030;2023-11-19T12:33:10;94663.19;;;16.45
31528;BMP280;10206;48.012;10.030;2023-11-19T12:35:43;94664.81;;;16.37
31528;BMP280;10206;48.012;10.030;2023-11-19T12:38:23;94664.28;;;16.27
31528;BMP280;10206;48.012;10.030;2023-11-19T12:41:07;94661.84;;;16.33
31528;BMP280;10206;48.012;10.030;2023-11-19T12:43:33;94648.91;;;15.97
31528;BMP280;10206;48.012;10.030;2023-11-19T12:46:16;94652.81;;;16.05
31528;BMP280;10206;48.012;10.030;2023-11-19T12:48:43;94653.53;;;15.81
31528;BMP280;10206;48.012;10.030;2023-11-19T12:51:09;94650.66;;;15.53
31528;BMP280;10206;48.012;10.030;2023-11-19T12:53:51;94645.41;;;15.83
31528;BMP280;10206;48.012;10.030;2023-11-19T12:56:21;94649.38;;;15.80
31528;BMP280;10206;48.012;10.030;2023-11-19T12:58:47;94650.38;;;15.61
31528;BMP280;10206;48.012;10.030;2023-11-19T13:01:19;94651.59;;;15.83
31528;BMP280;10206;48.012;10.030;2023-11-19T13:03:46;94652.47;;;15.99
31528;BMP280;10206;48.012;10.030;2023-11-19T13:06:13;94661.72;;;15.67
31528;BMP280;10206;48.012;10.030;2023-11-19T13:08:47;94664.69;;;15.71
31528;BMP280;10206;48.012;10.030;2023-11-19T13:11:35;94671.63;;;15.97
31528;BMP280;10206;48.012;10.030;2023-11-19T13:14:03;94669.47;;;16.21
31528;BMP280;10206;48.012;10.030;2023-11-19T13:16:38;94677.38;;;16.40
31528;BMP280;10206;48.012;10.030;2023-11-19T13:19:04;94681.25;;;16.10
31528;BMP280;10206;48.012;10.030;2023-11-19T13:21:31;94675.72;;;15.96
31528;BMP280;10206;48.012;10.030;2023-11-19T13:23:57;94673.31;;;16.02
31528;BMP280;10206;48.012;10.030;2023-11-19T13:26:24;94685.69;;;15.53
31528;BMP280;10206;48.012;10.030;2023-11-19T13:28:50;94675.81;;;15.73
31528;BMP280;10206;48.012;10.030;2023-11-19T13:31:16;94669.38;;;15.68
31528;BMP280;10206;48.012;10.030;2023-11-19T13:33:42;94651.53;;;15.95
31528;BMP280;10206;48.012;10.030;2023-11-19T13:36:09;94656.22;;;16.17
31528;BMP280;10206;48.012;10.030;2023-11-19T13:38:36;94656.31;;;15.94
31528;BMP280;10206;48.012;10.030;2023-11-19T13:41:03;94648.00;;;15.92
31528;BMP280;10206;48.012;10.030;2023-11-19T13:43:30;94658.91;;;15.17
31528;BMP280;10206;48.012;10.030;2023-11-19T13:45:57;94656.19;;;15.42
31528;BMP280;10206;48.012;10.030;2023-11-19T13:48:24;94653.91;;;15.50
31528;BMP280;10206;48.012;10.030;2023-11-19T13:50:50;94646.06;;;15.33
31528;BMP280;10206;48.012;10.030;2023-11-19T13:53:17;94648.03;;;15.19
31528;BMP280;10206;48.012;10.030;2023-11-19T13:55:43;94645.78;;;15.04
31528;BMP280;10206;48.012;10.030;2023-11-19T13:58:10;94643.50;;;14.88
31528;BMP280;10206;48.012;10.030;2023-11-19T14:00:36;94644.34;;;15.03
31528;BMP280;10206;48.012;10.030;2023-11-19T14:03:03;94632.28;;;14.96
31528;BMP280;10206;48.012;10.030;2023-11-19T14:05:29;94638.97;;;15.05
31528;BMP280;10206;48.012;10.030;2023-11-19T14:07:55;94628.00;;;14.93
31528;BMP280;10206;48.012;10.030;2023-11-19T14:10:22;94634.78;;;15.04
31528;BMP280;10206;48.012;10.030;2023-11-19T14:12:49;94638.72;;;15.12
31528;BMP280;10206;48.012;10.030;2023-11-19T14:15:17;94630.97;;;15.09
31528;BMP280;10206;48.012;10.030;2023-11-19T14:17:44;94627.50;;;14.97
31528;BMP280;10206;48.012;10.030;2023-11-19T14:20:10;94624.63;;;14.95